Flight Track Log - Related Links

Times and Time Zones

All times are in EDT time to prevent confusion due to time zone crossing. See the N36120 flight status page for this flight to view local times or setup timezone preferences in your user account.

Time Position Orientation Groundspeed Altitude Reporting Facility
EDT Latitude Longitude Course Direction KTS MPH feet Rate Location/Type
Sat 11:01:33 AM 41.3356 -82.1981 360° North 86 99 1,100  Level Cleveland Center
Sat 11:01:33 AM 41.3356 -82.1981 303° West 86 99 1,100 608 Level Cleveland Center
Sat 11:02:52 AM 41.3519 -82.2317 303° West 104 120 1,900 608 Climbing Cleveland Center
Sat 11:02:52 AM 41.3519 -82.2317 303° West 104 120 1,900 393 Level Cleveland Center
Sat 11:03:53 AM 41.3811 -82.2353 355° North 94 108 2,300 393 Climbing Cleveland Center
Sat 11:03:53 AM 41.3811 -82.2353 355° North 94 108 2,300 197 Level Cleveland Center
Sat 11:04:54 AM 41.4061 -82.2358 359° North 93 107 2,500 197 Climbing Cleveland Center
Sat 11:04:54 AM 41.4061 -82.2358 359° North 93 107 2,500 300 Level Cleveland Center
Sat 11:05:54 AM 41.4244 -82.2614 314° West 99 114 2,800 300 Climbing Cleveland Center
Sat 11:05:54 AM 41.4244 -82.2614 314° West 99 114 2,800 393 Level Cleveland Center
Sat 11:06:55 AM 41.4408 -82.2867 311° West 92 106 3,200 393 Climbing Cleveland Center
Sat 11:06:55 AM 41.4408 -82.2867 311° West 92 106 3,200 -98 Level Cleveland Center
Sat 11:07:56 AM 41.4464 -82.3228 282° West 116 133 3,100 -98 Descending Cleveland Center
Sat 11:07:56 AM 41.4464 -82.3228 282° West 116 133 3,100 -197 Level Cleveland Center
Sat 11:08:57 AM 41.4583 -82.3675 290° West 127 146 2,900 -197 Descending Cleveland Center
Sat 11:08:57 AM 41.4583 -82.3675 290° West 127 146 2,900 98 Level Cleveland Center
Sat 11:09:58 AM 41.4722 -82.4094 294° West 117 135 3,000 98 Climbing Cleveland Center
Sat 11:09:58 AM 41.4722 -82.4094 294° West 117 135 3,000  Level Cleveland Center
Sat 11:10:59 AM 41.4819 -82.4539 286° West 121 139 3,000  Level Cleveland Center
Sat 11:10:59 AM 41.4819 -82.4539 286° West 121 139 3,000  Level Cleveland Center
Sat 11:11:59 AM 41.4978 -82.4989 295° West 123 142 3,000  Level Cleveland Center
Sat 11:11:59 AM 41.4978 -82.4989 295° West 123 142 3,000  Level Cleveland Center
Sat 11:13:00 AM 41.5117 -82.5381 295° West 124 143 3,000  Level Cleveland Center
Sat 11:13:00 AM 41.5117 -82.5381 295° West 124 143 3,000  Level Cleveland Center
Sat 11:14:01 AM 41.5256 -82.5800 294° West 124 143 3,000  Level Cleveland Center
Sat 11:14:01 AM 41.5256 -82.5800 294° West 124 143 3,000  Level Cleveland Center
Sat 11:15:02 AM 41.5394 -82.6222 294° West 121 139 3,000  Level Cleveland Center
Sat 11:15:02 AM 41.5394 -82.6222 294° West 121 139 3,000  Level Cleveland Center
Sat 11:16:03 AM 41.5367 -82.6692 265° West 115 132 3,000  Level Cleveland Center
Sat 11:16:03 AM 41.5367 -82.6692 265° West 115 132 3,000 -787 Level Cleveland Center
Sat 11:17:04 AM 41.5336 -82.7136 265° West 122 140 2,200 -787 Descending Cleveland Center
Sat 11:17:04 AM 41.5336 -82.7136 265° West 122 140 2,200 -492 Level Cleveland Center
Sat 11:18:05 AM 41.5267 -82.7522 257° West 121 139 1,700 -492 Descending Cleveland Center
Sat 11:18:05 AM 41.5267 -82.7522 257° West 121 139 1,700  Level Cleveland Center
Sat 11:19:11 AM 41.5239 -82.7908 265° West 96 110 1,700  Level Cleveland Center
Sat 11:19:11 AM 41.5239 -82.7908 265° West 96 110 1,700 -393 Level Cleveland Center
Sat 11:20:12 AM 41.5211 -82.8239 264° West 89 102 1,300 -393 Descending Cleveland Center
Sat 11:21:00 AM 41.5163 -82.8695 263° West  Level Estimated
Sat 11:28:00 AM 41.5163 -82.8695 83° East  Level Estimated
Sat 11:29:00 AM 41.5163 -82.8695 83° East  Level Estimated

Login

Don't have an account? Register now (free) for customized features, flight alerts, and more!